sensor_id;sensor_type;location;lat;lon;timestamp;P1;P2;P0
65803;PMS5003;65658;63.740;34.316;2023-01-15T00:00:15;5;7;
65803;PMS5003;65658;63.740;34.316;2023-01-15T00:04:02;7;7;
65803;PMS5003;65658;63.740;34.316;2023-01-15T00:07:59;4;4;
65803;PMS5003;65658;63.740;34.316;2023-01-15T00:11:46;5;5;
65803;PMS5003;65658;63.740;34.316;2023-01-15T00:15:33;7;7;
65803;PMS5003;65658;63.740;34.316;2023-01-15T00:19:19;4;4;
65803;PMS5003;65658;63.740;34.316;2023-01-15T00:23:16;3;3;
65803;PMS5003;65658;63.740;34.316;2023-01-15T00:27:02;4;4;
65803;PMS5003;65658;63.740;34.316;2023-01-15T00:31:00;3;3;
65803;PMS5003;65658;63.740;34.316;2023-01-15T00:34:46;5;7;
65803;PMS5003;65658;63.740;34.316;2023-01-15T00:38:32;7;7;
65803;PMS5003;65658;63.740;34.316;2023-01-15T00:42:18;7;7;
65803;PMS5003;65658;63.740;34.316;2023-01-15T00:46:26;4;5;
65803;PMS5003;65658;63.740;34.316;2023-01-15T00:50:13;7;7;
65803;PMS5003;65658;63.740;34.316;2023-01-15T00:53:59;5;7;
65803;PMS5003;65658;63.740;34.316;2023-01-15T00:57:45;4;4;
65803;PMS5003;65658;63.740;34.316;2023-01-15T01:01:31;4;5;
65803;PMS5003;65658;63.740;34.316;2023-01-15T01:05:18;8;9;
65803;PMS5003;65658;63.740;34.316;2023-01-15T01:09:04;7;8;
65803;PMS5003;65658;63.740;34.316;2023-01-15T01:12:51;5;5;
65803;PMS5003;65658;63.740;34.316;2023-01-15T01:16:38;5;5;
65803;PMS5003;65658;63.740;34.316;2023-01-15T01:20:25;9;9;
65803;PMS5003;65658;63.740;34.316;2023-01-15T01:24:23;5;5;
65803;PMS5003;65658;63.740;34.316;2023-01-15T01:28:09;4;4;
65803;PMS5003;65658;63.740;34.316;2023-01-15T01:31:56;3;4;
65803;PMS5003;65658;63.740;34.316;2023-01-15T01:39:45;8;8;
65803;PMS5003;65658;63.740;34.316;2023-01-15T01:43:49;5;5;
65803;PMS5003;65658;63.740;34.316;2023-01-15T01:47:22;4;4;
65803;PMS5003;65658;63.740;34.316;2023-01-15T01:51:09;5;5;
65803;PMS5003;65658;63.740;34.316;2023-01-15T01:54:55;3;4;
65803;PMS5003;65658;63.740;34.316;2023-01-15T01:58:42;4;4;
65803;PMS5003;65658;63.740;34.316;2023-01-15T02:02:29;4;4;
65803;PMS5003;65658;63.740;34.316;2023-01-15T02:06:16;5;5;
65803;PMS5003;65658;63.740;34.316;2023-01-15T02:10:03;5;7;
65803;PMS5003;65658;63.740;34.316;2023-01-15T02:13:53;4;5;
65803;PMS5003;65658;63.740;34.316;2023-01-15T02:25:27;5;5;
65803;PMS5003;65658;63.740;34.316;2023-01-15T02:29:17;4;5;
65803;PMS5003;65658;63.740;34.316;2023-01-15T02:33:05;4;4;
65803;PMS5003;65658;63.740;34.316;2023-01-15T02:36:57;4;4;
65803;PMS5003;65658;63.740;34.316;2023-01-15T02:40:44;4;4;
65803;PMS5003;65658;63.740;34.316;2023-01-15T02:44:31;2;2;
65803;PMS5003;65658;63.740;34.316;2023-01-15T02:48:19;3;3;
65803;PMS5003;65658;63.740;34.316;2023-01-15T02:52:32;4;4;
65803;PMS5003;65658;63.740;34.316;2023-01-15T02:56:30;3;3;
65803;PMS5003;65658;63.740;34.316;2023-01-15T03:00:40;3;3;
65803;PMS5003;65658;63.740;34.316;2023-01-15T03:08:13;5;5;
65803;PMS5003;65658;63.740;34.316;2023-01-15T03:19:52;4;5;
65803;PMS5003;65658;63.740;34.316;2023-01-15T03:23:37;3;3;
65803;PMS5003;65658;63.740;34.316;2023-01-15T03:27:35;4;5;
65803;PMS5003;65658;63.740;34.316;2023-01-15T03:31:22;4;4;
65803;PMS5003;65658;63.740;34.316;2023-01-15T03:35:38;3;4;
65803;PMS5003;65658;63.740;34.316;2023-01-15T03:38:59;3;3;
65803;PMS5003;65658;63.740;34.316;2023-01-15T03:42:49;2;2;
65803;PMS5003;65658;63.740;34.316;2023-01-15T03:50:41;3;3;
65803;PMS5003;65658;63.740;34.316;2023-01-15T03:54:44;3;3;
65803;PMS5003;65658;63.740;34.316;2023-01-15T04:02:22;2;2;
65803;PMS5003;65658;63.740;34.316;2023-01-15T04:06:09;3;3;
65803;PMS5003;65658;63.740;34.316;2023-01-15T04:09:55;2;2;
65803;PMS5003;65658;63.740;34.316;2023-01-15T04:13:53;1;1;
65803;PMS5003;65658;63.740;34.316;2023-01-15T04:17:40;2;3;
65803;PMS5003;65658;63.740;34.316;2023-01-15T04:21:26;2;2;
65803;PMS5003;65658;63.740;34.316;2023-01-15T04:25:13;2;2;
65803;PMS5003;65658;63.740;34.316;2023-01-15T04:29:00;1;1;
65803;PMS5003;65658;63.740;34.316;2023-01-15T04:32:49;2;2;
65803;PMS5003;65658;63.740;34.316;2023-01-15T04:36:35;1;1;
65803;PMS5003;65658;63.740;34.316;2023-01-15T04:40:22;0;0;
65803;PMS5003;65658;63.740;34.316;2023-01-15T04:44:19;1;1;
65803;PMS5003;65658;63.740;34.316;2023-01-15T04:48:06;0;0;
65803;PMS5003;65658;63.740;34.316;2023-01-15T04:52:03;1;1;
65803;PMS5003;65658;63.740;34.316;2023-01-15T04:55:50;1;1;
65803;PMS5003;65658;63.740;34.316;2023-01-15T04:59:47;1;1;
65803;PMS5003;65658;63.740;34.316;2023-01-15T05:03:34;0;0;
65803;PMS5003;65658;63.740;34.316;2023-01-15T05:07:32;1;1;
65803;PMS5003;65658;63.740;34.316;2023-01-15T05:11:40;0;0;
65803;PMS5003;65658;63.740;34.316;2023-01-15T05:15:27;0;1;
65803;PMS5003;65658;63.740;34.316;2023-01-15T05:19:24;1;1;
65803;PMS5003;65658;63.740;34.316;2023-01-15T05:23:22;1;1;
65803;PMS5003;65658;63.740;34.316;2023-01-15T05:27:19;0;0;
65803;PMS5003;65658;63.740;34.316;2023-01-15T05:31:10;0;0;
65803;PMS5003;65658;63.740;34.316;2023-01-15T05:35:07;0;0;
65803;PMS5003;65658;63.740;34.316;2023-01-15T05:39:04;0;0;
65803;PMS5003;65658;63.740;34.316;2023-01-15T05:42:50;0;0;
65803;PMS5003;65658;63.740;34.316;2023-01-15T05:46:47;1;1;
65803;PMS5003;65658;63.740;34.316;2023-01-15T05:50:33;0;0;
65803;PMS5003;65658;63.740;34.316;2023-01-15T05:54:31;0;0;
65803;PMS5003;65658;63.740;34.316;2023-01-15T05:58:18;0;0;
65803;PMS5003;65658;63.740;34.316;2023-01-15T06:02:14;0;0;
65803;PMS5003;65658;63.740;34.316;2023-01-15T06:06:15;0;0;
65803;PMS5003;65658;63.740;34.316;2023-01-15T06:10:14;0;0;
65803;PMS5003;65658;63.740;34.316;2023-01-15T06:14:01;0;0;
65803;PMS5003;65658;63.740;34.316;2023-01-15T06:17:58;0;5;
65803;PMS5003;65658;63.740;34.316;2023-01-15T06:21:54;0;0;
65803;PMS5003;65658;63.740;34.316;2023-01-15T06:26:03;0;0;
65803;PMS5003;65658;63.740;34.316;2023-01-15T06:29:50;0;0;
65803;PMS5003;65658;63.740;34.316;2023-01-15T06:33:36;0;0;
65803;PMS5003;65658;63.740;34.316;2023-01-15T06:37:23;0;0;
65803;PMS5003;65658;63.740;34.316;2023-01-15T06:41:13;0;0;
65803;PMS5003;65658;63.740;34.316;2023-01-15T06:44:59;0;0;
65803;PMS5003;65658;63.740;34.316;2023-01-15T06:48:57;0;0;
65803;PMS5003;65658;63.740;34.316;2023-01-15T06:52:43;1;1;
65803;PMS5003;65658;63.740;34.316;2023-01-15T06:56:29;0;0;
65803;PMS5003;65658;63.740;34.316;2023-01-15T07:00:16;1;1;
65803;PMS5003;65658;63.740;34.316;2023-01-15T07:04:02;0;0;
65803;PMS5003;65658;63.740;34.316;2023-01-15T07:07:49;1;1;
65803;PMS5003;65658;63.740;34.316;2023-01-15T07:11:45;0;0;
65803;PMS5003;65658;63.740;34.316;2023-01-15T07:15:32;1;2;
65803;PMS5003;65658;63.740;34.316;2023-01-15T07:19:19;1;1;
65803;PMS5003;65658;63.740;34.316;2023-01-15T07:23:05;1;1;
65803;PMS5003;65658;63.740;34.316;2023-01-15T07:26:52;1;1;
65803;PMS5003;65658;63.740;34.316;2023-01-15T07:30:49;1;1;
65803;PMS5003;65658;63.740;34.316;2023-01-15T07:34:47;1;1;
65803;PMS5003;65658;63.740;34.316;2023-01-15T07:38:55;0;1;
65803;PMS5003;65658;63.740;34.316;2023-01-15T07:42:52;3;3;
65803;PMS5003;65658;63.740;34.316;2023-01-15T07:46:38;1;1;
65803;PMS5003;65658;63.740;34.316;2023-01-15T07:50:25;1;1;
65803;PMS5003;65658;63.740;34.316;2023-01-15T07:54:22;1;1;
65803;PMS5003;65658;63.740;34.316;2023-01-15T07:58:08;1;1;
65803;PMS5003;65658;63.740;34.316;2023-01-15T08:01:55;2;2;
65803;PMS5003;65658;63.740;34.316;2023-01-15T08:05:41;2;2;
65803;PMS5003;65658;63.740;34.316;2023-01-15T08:09:39;1;1;
65803;PMS5003;65658;63.740;34.316;2023-01-15T08:13:25;3;4;
65803;PMS5003;65658;63.740;34.316;2023-01-15T08:17:12;2;2;
65803;PMS5003;65658;63.740;34.316;2023-01-15T08:21:13;1;1;
65803;PMS5003;65658;63.740;34.316;2023-01-15T08:24:59;1;1;
65803;PMS5003;65658;63.740;34.316;2023-01-15T08:28:45;2;3;
65803;PMS5003;65658;63.740;34.316;2023-01-15T08:32:32;2;2;
65803;PMS5003;65658;63.740;34.316;2023-01-15T08:36:18;3;3;
65803;PMS5003;65658;63.740;34.316;2023-01-15T08:40:05;2;2;
65803;PMS5003;65658;63.740;34.316;2023-01-15T08:43:52;4;4;
65803;PMS5003;65658;63.740;34.316;2023-01-15T08:47:38;3;3;
65803;PMS5003;65658;63.740;34.316;2023-01-15T08:51:25;4;4;
65803;PMS5003;65658;63.740;34.316;2023-01-15T08:55:22;3;3;
65803;PMS5003;65658;63.740;34.316;2023-01-15T08:59:09;3;3;
65803;PMS5003;65658;63.740;34.316;2023-01-15T09:03:17;2;2;
65803;PMS5003;65658;63.740;34.316;2023-01-15T09:07:03;2;2;
65803;PMS5003;65658;63.740;34.316;2023-01-15T09:10:50;2;2;
65803;PMS5003;65658;63.740;34.316;2023-01-15T09:14:36;2;2;
65803;PMS5003;65658;63.740;34.316;2023-01-15T09:18:23;2;3;
65803;PMS5003;65658;63.740;34.316;2023-01-15T09:22:09;4;4;
65803;PMS5003;65658;63.740;34.316;2023-01-15T09:25:59;2;2;
65803;PMS5003;65658;63.740;34.316;2023-01-15T09:29:57;1;1;
65803;PMS5003;65658;63.740;34.316;2023-01-15T09:34:16;1;1;
65803;PMS5003;65658;63.740;34.316;2023-01-15T09:38:03;1;1;
65803;PMS5003;65658;63.740;34.316;2023-01-15T09:57:13;2;2;
65803;PMS5003;65658;63.740;34.316;2023-01-15T10:01:01;3;3;
65803;PMS5003;65658;63.740;34.316;2023-01-15T10:08:47;2;2;
65803;PMS5003;65658;63.740;34.316;2023-01-15T10:12:44;1;1;
65803;PMS5003;65658;63.740;34.316;2023-01-15T10:16:31;2;2;
65803;PMS5003;65658;63.740;34.316;2023-01-15T10:21:06;2;2;
65803;PMS5003;65658;63.740;34.316;2023-01-15T10:28:01;2;2;
65803;PMS5003;65658;63.740;34.316;2023-01-15T10:47:21;1;1;
65803;PMS5003;65658;63.740;34.316;2023-01-15T10:51:26;0;0;
65803;PMS5003;65658;63.740;34.316;2023-01-15T11:03:02;2;2;
65803;PMS5003;65658;63.740;34.316;2023-01-15T11:06:48;2;2;
65803;PMS5003;65658;63.740;34.316;2023-01-15T11:10:35;3;4;
65803;PMS5003;65658;63.740;34.316;2023-01-15T11:18:21;2;2;
65803;PMS5003;65658;63.740;34.316;2023-01-15T11:22:07;2;3;
65803;PMS5003;65658;63.740;34.316;2023-01-15T11:26:04;2;2;
65803;PMS5003;65658;63.740;34.316;2023-01-15T11:34:02;2;2;
65803;PMS5003;65658;63.740;34.316;2023-01-15T11:38:03;2;2;
65803;PMS5003;65658;63.740;34.316;2023-01-15T11:41:49;2;3;
65803;PMS5003;65658;63.740;34.316;2023-01-15T11:49:31;2;2;
65803;PMS5003;65658;63.740;34.316;2023-01-15T11:53:28;2;3;
65803;PMS5003;65658;63.740;34.316;2023-01-15T12:01:24;2;2;
65803;PMS5003;65658;63.740;34.316;2023-01-15T12:05:22;2;2;
65803;PMS5003;65658;63.740;34.316;2023-01-15T12:28:35;6;8;
65803;PMS5003;65658;63.740;34.316;2023-01-15T12:32:26;4;4;
65803;PMS5003;65658;63.740;34.316;2023-01-15T12:43:59;5;6;
65803;PMS5003;65658;63.740;34.316;2023-01-15T12:55:32;5;5;
65803;PMS5003;65658;63.740;34.316;2023-01-15T12:59:21;8;9;
65803;PMS5003;65658;63.740;34.316;2023-01-15T13:10:44;10;11;
65803;PMS5003;65658;63.740;34.316;2023-01-15T13:14:34;8;8;
65803;PMS5003;65658;63.740;34.316;2023-01-15T13:22:13;13;14;
65803;PMS5003;65658;63.740;34.316;2023-01-15T13:33:46;50;62;
65803;PMS5003;65658;63.740;34.316;2023-01-15T13:37:44;64;80;
65803;PMS5003;65658;63.740;34.316;2023-01-15T13:41:37;48;60;
65803;PMS5003;65658;63.740;34.316;2023-01-15T13:45:41;114;137;
65803;PMS5003;65658;63.740;34.316;2023-01-15T13:49:47;144;166;
65803;PMS5003;65658;63.740;34.316;2023-01-15T13:53:43;107;126;
65803;PMS5003;65658;63.740;34.316;2023-01-15T13:57:39;122;149;
65803;PMS5003;65658;63.740;34.316;2023-01-15T14:01:35;19;20;
65803;PMS5003;65658;63.740;34.316;2023-01-15T14:05:32;252;319;
65803;PMS5003;65658;63.740;34.316;2023-01-15T14:09:28;48;62;
65803;PMS5003;65658;63.740;34.316;2023-01-15T14:21:51;193;234;
65803;PMS5003;65658;63.740;34.316;2023-01-15T14:37:56;212;255;
65803;PMS5003;65658;63.740;34.316;2023-01-15T14:41:54;192;225;
65803;PMS5003;65658;63.740;34.316;2023-01-15T14:45:48;93;114;
65803;PMS5003;65658;63.740;34.316;2023-01-15T14:49:42;305;362;
65803;PMS5003;65658;63.740;34.316;2023-01-15T14:54:21;288;365;
65803;PMS5003;65658;63.740;34.316;2023-01-15T14:58:00;225;283;
65803;PMS5003;65658;63.740;34.316;2023-01-15T15:02:12;248;299;
65803;PMS5003;65658;63.740;34.316;2023-01-15T15:06:01;251;310;
65803;PMS5003;65658;63.740;34.316;2023-01-15T15:14:24;188;226;
65803;PMS5003;65658;63.740;34.316;2023-01-15T15:18:30;121;150;
65803;PMS5003;65658;63.740;34.316;2023-01-15T15:22:24;149;185;
65803;PMS5003;65658;63.740;34.316;2023-01-15T15:26:29;254;317;
65803;PMS5003;65658;63.740;34.316;2023-01-15T15:30:56;185;217;
65803;PMS5003;65658;63.740;34.316;2023-01-15T15:34:52;213;245;
65803;PMS5003;65658;63.740;34.316;2023-01-15T15:43:14;131;156;
65803;PMS5003;65658;63.740;34.316;2023-01-15T15:47:40;141;170;
65803;PMS5003;65658;63.740;34.316;2023-01-15T15:51:53;278;335;
65803;PMS5003;65658;63.740;34.316;2023-01-15T15:55:47;132;150;
65803;PMS5003;65658;63.740;34.316;2023-01-15T15:59:43;133;166;
65803;PMS5003;65658;63.740;34.316;2023-01-15T16:04:21;207;256;
65803;PMS5003;65658;63.740;34.316;2023-01-15T16:08:25;169;196;
65803;PMS5003;65658;63.740;34.316;2023-01-15T16:12:19;256;307;
65803;PMS5003;65658;63.740;34.316;2023-01-15T16:16:23;89;103;
65803;PMS5003;65658;63.740;34.316;2023-01-15T16:20:29;157;184;
65803;PMS5003;65658;63.740;34.316;2023-01-15T16:24:23;148;175;
65803;PMS5003;65658;63.740;34.316;2023-01-15T16:32:35;38;45;
65803;PMS5003;65658;63.740;34.316;2023-01-15T16:40:37;161;204;
65803;PMS5003;65658;63.740;34.316;2023-01-15T16:57:31;86;105;
65803;PMS5003;65658;63.740;34.316;2023-01-15T17:05:14;52;70;
65803;PMS5003;65658;63.740;34.316;2023-01-15T17:09:19;111;135;
65803;PMS5003;65658;63.740;34.316;2023-01-15T17:13:17;114;147;
65803;PMS5003;65658;63.740;34.316;2023-01-15T17:17:15;85;104;
65803;PMS5003;65658;63.740;34.316;2023-01-15T17:21:20;226;293;
65803;PMS5003;65658;63.740;34.316;2023-01-15T17:25:28;201;254;
65803;PMS5003;65658;63.740;34.316;2023-01-15T17:29:32;207;268;
65803;PMS5003;65658;63.740;34.316;2023-01-15T17:33:27;350;460;
65803;PMS5003;65658;63.740;34.316;2023-01-15T17:37:33;168;210;
65803;PMS5003;65658;63.740;34.316;2023-01-15T17:41:49;62;84;
65803;PMS5003;65658;63.740;34.316;2023-01-15T17:45:43;202;265;
65803;PMS5003;65658;63.740;34.316;2023-01-15T17:49:49;353;473;
65803;PMS5003;65658;63.740;34.316;2023-01-15T17:54:04;85;112;
65803;PMS5003;65658;63.740;34.316;2023-01-15T17:58:00;342;433;
65803;PMS5003;65658;63.740;34.316;2023-01-15T18:02:24;323;416;
65803;PMS5003;65658;63.740;34.316;2023-01-15T18:07:00;141;171;
65803;PMS5003;65658;63.740;34.316;2023-01-15T18:10:52;325;418;
65803;PMS5003;65658;63.740;34.316;2023-01-15T18:14:45;123;158;
65803;PMS5003;65658;63.740;34.316;2023-01-15T18:18:38;268;349;
65803;PMS5003;65658;63.740;34.316;2023-01-15T18:22:42;333;435;
65803;PMS5003;65658;63.740;34.316;2023-01-15T18:26:44;133;189;
65803;PMS5003;65658;63.740;34.316;2023-01-15T18:30:48;93;116;
65803;PMS5003;65658;63.740;34.316;2023-01-15T18:34:53;79;93;
65803;PMS5003;65658;63.740;34.316;2023-01-15T18:38:48;267;349;
65803;PMS5003;65658;63.740;34.316;2023-01-15T18:42:54;49;58;
65803;PMS5003;65658;63.740;34.316;2023-01-15T18:47:02;151;184;
65803;PMS5003;65658;63.740;34.316;2023-01-15T18:51:19;116;133;
65803;PMS5003;65658;63.740;34.316;2023-01-15T18:55:59;52;69;
65803;PMS5003;65658;63.740;34.316;2023-01-15T19:00:05;101;123;
65803;PMS5003;65658;63.740;34.316;2023-01-15T19:04:08;31;36;
65803;PMS5003;65658;63.740;34.316;2023-01-15T19:08:13;77;94;
65803;PMS5003;65658;63.740;34.316;2023-01-15T19:12:24;34;39;
65803;PMS5003;65658;63.740;34.316;2023-01-15T19:16:16;51;65;
65803;PMS5003;65658;63.740;34.316;2023-01-15T19:20:10;35;36;
65803;PMS5003;65658;63.740;34.316;2023-01-15T19:24:05;10;10;
65803;PMS5003;65658;63.740;34.316;2023-01-15T19:27:59;53;71;
65803;PMS5003;65658;63.740;34.316;2023-01-15T19:32:23;52;68;
65803;PMS5003;65658;63.740;34.316;2023-01-15T19:36:37;60;78;
65803;PMS5003;65658;63.740;34.316;2023-01-15T19:40:39;48;60;
65803;PMS5003;65658;63.740;34.316;2023-01-15T19:44:44;54;73;
65803;PMS5003;65658;63.740;34.316;2023-01-15T19:48:57;46;60;
65803;PMS5003;65658;63.740;34.316;2023-01-15T19:52:59;43;51;
65803;PMS5003;65658;63.740;34.316;2023-01-15T19:56:48;7;7;
65803;PMS5003;65658;63.740;34.316;2023-01-15T20:00:35;7;8;
65803;PMS5003;65658;63.740;34.316;2023-01-15T20:04:22;16;19;
65803;PMS5003;65658;63.740;34.316;2023-01-15T20:08:09;7;7;
65803;PMS5003;65658;63.740;34.316;2023-01-15T20:11:56;7;7;
65803;PMS5003;65658;63.740;34.316;2023-01-15T20:15:43;8;8;
65803;PMS5003;65658;63.740;34.316;2023-01-15T20:19:31;6;6;
65803;PMS5003;65658;63.740;34.316;2023-01-15T20:23:30;25;29;
65803;PMS5003;65658;63.740;34.316;2023-01-15T20:27:17;6;6;
65803;PMS5003;65658;63.740;34.316;2023-01-15T20:31:04;3;3;
65803;PMS5003;65658;63.740;34.316;2023-01-15T20:34:51;7;7;
65803;PMS5003;65658;63.740;34.316;2023-01-15T20:38:37;7;8;
65803;PMS5003;65658;63.740;34.316;2023-01-15T20:42:24;4;4;
65803;PMS5003;65658;63.740;34.316;2023-01-15T20:46:22;4;6;
65803;PMS5003;65658;63.740;34.316;2023-01-15T20:50:13;7;9;
65803;PMS5003;65658;63.740;34.316;2023-01-15T20:54:00;4;6;
65803;PMS5003;65658;63.740;34.316;2023-01-15T20:57:46;4;6;
65803;PMS5003;65658;63.740;34.316;2023-01-15T21:01:31;4;4;
65803;PMS5003;65658;63.740;34.316;2023-01-15T21:05:18;2;2;
65803;PMS5003;65658;63.740;34.316;2023-01-15T21:09:05;9;10;
65803;PMS5003;65658;63.740;34.316;2023-01-15T21:12:51;3;4;
65803;PMS5003;65658;63.740;34.316;2023-01-15T21:16:38;2;2;
65803;PMS5003;65658;63.740;34.316;2023-01-15T21:20:24;3;4;
65803;PMS5003;65658;63.740;34.316;2023-01-15T21:24:11;3;3;
65803;PMS5003;65658;63.740;34.316;2023-01-15T21:27:57;3;3;
65803;PMS5003;65658;63.740;34.316;2023-01-15T21:31:43;2;2;
65803;PMS5003;65658;63.740;34.316;2023-01-15T21:35:30;2;2;
65803;PMS5003;65658;63.740;34.316;2023-01-15T21:39:16;3;4;
65803;PMS5003;65658;63.740;34.316;2023-01-15T21:43:02;3;4;
65803;PMS5003;65658;63.740;34.316;2023-01-15T21:46:49;2;3;
65803;PMS5003;65658;63.740;34.316;2023-01-15T21:50:35;2;2;
65803;PMS5003;65658;63.740;34.316;2023-01-15T21:54:22;2;2;
65803;PMS5003;65658;63.740;34.316;2023-01-15T21:58:08;2;2;
65803;PMS5003;65658;63.740;34.316;2023-01-15T22:02:06;2;2;
65803;PMS5003;65658;63.740;34.316;2023-01-15T22:06:07;1;1;
65803;PMS5003;65658;63.740;34.316;2023-01-15T22:10:04;2;3;
65803;PMS5003;65658;63.740;34.316;2023-01-15T22:13:51;2;2;
65803;PMS5003;65658;63.740;34.316;2023-01-15T22:17:37;1;1;
65803;PMS5003;65658;63.740;34.316;2023-01-15T22:21:35;2;2;
65803;PMS5003;65658;63.740;34.316;2023-01-15T22:25:21;2;3;
65803;PMS5003;65658;63.740;34.316;2023-01-15T22:29:23;1;2;
65803;PMS5003;65658;63.740;34.316;2023-01-15T22:33:09;1;1;
65803;PMS5003;65658;63.740;34.316;2023-01-15T22:36:56;2;2;
65803;PMS5003;65658;63.740;34.316;2023-01-15T22:40:42;2;2;
65803;PMS5003;65658;63.740;34.316;2023-01-15T22:44:28;2;2;
65803;PMS5003;65658;63.740;34.316;2023-01-15T22:48:26;1;2;
65803;PMS5003;65658;63.740;34.316;2023-01-15T22:52:13;2;2;
65803;PMS5003;65658;63.740;34.316;2023-01-15T22:55:59;3;3;
65803;PMS5003;65658;63.740;34.316;2023-01-15T22:59:46;1;1;
65803;PMS5003;65658;63.740;34.316;2023-01-15T23:03:33;1;1;
65803;PMS5003;65658;63.740;34.316;2023-01-15T23:07:19;2;2;
65803;PMS5003;65658;63.740;34.316;2023-01-15T23:15:08;1;1;
65803;PMS5003;65658;63.740;34.316;2023-01-15T23:18:55;1;2;
65803;PMS5003;65658;63.740;34.316;2023-01-15T23:22:52;0;0;
65803;PMS5003;65658;63.740;34.316;2023-01-15T23:26:39;1;1;
65803;PMS5003;65658;63.740;34.316;2023-01-15T23:30:25;2;2;
65803;PMS5003;65658;63.740;34.316;2023-01-15T23:34:11;2;2;
65803;PMS5003;65658;63.740;34.316;2023-01-15T23:37:57;3;4;
65803;PMS5003;65658;63.740;34.316;2023-01-15T23:41:53;1;1;
65803;PMS5003;65658;63.740;34.316;2023-01-15T23:45:40;1;1;
65803;PMS5003;65658;63.740;34.316;2023-01-15T23:49:37;1;1;
65803;PMS5003;65658;63.740;34.316;2023-01-15T23:53:35;1;2;
65803;PMS5003;65658;63.740;34.316;2023-01-15T23:57:21;2;2;
